createdAt,value
2022-09-09T00:01:33.941Z,7.50
2022-09-09T00:06:56.886Z,8.07
2022-09-09T00:12:05.761Z,7.57
2022-09-09T00:17:19.056Z,9.20
2022-09-09T00:22:24.008Z,9.35
2022-09-09T00:27:39.052Z,8.93
2022-09-09T00:32:41.966Z,9.23
2022-09-09T00:37:46.938Z,9.03
2022-09-09T00:42:59.398Z,9.15
2022-09-09T00:48:09.511Z,9.55
2022-09-09T00:53:19.309Z,10.80
2022-09-09T00:58:21.359Z,9.88
2022-09-09T01:03:39.381Z,11.63
2022-09-09T01:09:03.296Z,11.00
2022-09-09T01:14:33.073Z,11.73
2022-09-09T01:19:58.188Z,11.77
2022-09-09T01:25:19.066Z,12.55
2022-09-09T01:30:35.986Z,11.50
2022-09-09T01:35:38.426Z,11.88
2022-09-09T01:40:40.517Z,11.63
2022-09-09T01:45:45.210Z,12.25
2022-09-09T01:50:47.237Z,12.52
2022-09-09T01:55:54.818Z,12.52
2022-09-09T02:01:03.912Z,12.98
2022-09-09T02:06:09.337Z,14.32
2022-09-09T02:11:17.149Z,12.85
2022-09-09T02:16:37.053Z,12.00
2022-09-09T02:21:40.657Z,12.75
2022-09-09T02:26:44.984Z,12.77
2022-09-09T02:31:52.172Z,13.77
2022-09-09T02:37:00.889Z,11.75
2022-09-09T02:42:04.870Z,11.77
2022-09-09T02:47:30.684Z,13.02
2022-09-09T02:53:15.793Z,11.85
2022-09-09T02:58:19.906Z,11.48
2022-09-09T03:03:31.350Z,11.32
2022-09-09T03:08:35.895Z,12.07
2022-09-09T03:13:38.947Z,12.13
2022-09-09T03:18:41.381Z,12.05
2022-09-09T03:23:43.408Z,11.55
2022-09-09T03:28:45.876Z,12.55
2022-09-09T03:33:51.276Z,11.85
2022-09-09T03:38:56.021Z,11.63
2022-09-09T03:44:00.223Z,11.10
2022-09-09T03:49:05.818Z,11.27
2022-09-09T03:54:09.349Z,9.80
2022-09-09T03:59:11.908Z,11.20
2022-09-09T04:04:14.261Z,11.40
2022-09-09T04:09:16.338Z,10.27
2022-09-09T04:14:18.558Z,10.35
2022-09-09T04:19:20.662Z,9.55
2022-09-09T04:24:22.687Z,9.93
2022-09-09T04:29:25.479Z,10.00
2022-09-09T04:34:27.720Z,9.73
2022-09-09T04:39:30.624Z,9.10
2022-09-09T04:44:34.501Z,9.07
2022-09-09T04:49:37.517Z,10.13
2022-09-09T04:54:39.965Z,9.18
2022-09-09T04:59:42.601Z,10.05
2022-09-09T05:04:44.834Z,8.70
2022-09-09T05:09:49.060Z,9.68
2022-09-09T05:14:51.908Z,9.55
2022-09-09T05:19:54.035Z,9.70
2022-09-09T05:24:56.400Z,9.48
2022-09-09T05:29:59.113Z,9.60
2022-09-09T05:35:02.553Z,10.33
2022-09-09T05:40:04.974Z,9.63
2022-09-09T05:45:08.822Z,10.38
2022-09-09T05:50:11.162Z,10.95
2022-09-09T05:55:13.254Z,9.90
2022-09-09T06:00:16.456Z,10.35
2022-09-09T06:05:23.782Z,11.98
2022-09-09T06:10:26.797Z,12.20
2022-09-09T06:15:31.753Z,11.90
2022-09-09T06:20:34.077Z,15.68
2022-09-09T06:25:36.028Z,12.68
2022-09-09T06:30:37.921Z,13.25
2022-09-09T06:35:41.328Z,12.63
2022-09-09T06:40:44.018Z,13.50
2022-09-09T06:45:57.305Z,14.50
2022-09-09T06:51:14.590Z,13.27
2022-09-09T06:56:18.052Z,13.65
2022-09-09T07:01:22.699Z,11.73
2022-09-09T07:06:36.953Z,13.63
2022-09-09T07:11:45.632Z,13.63
2022-09-09T07:16:48.704Z,13.98
2022-09-09T07:21:52.496Z,13.48
2022-09-09T07:26:57.780Z,17.25
2022-09-09T07:32:00.346Z,12.40
2022-09-09T07:37:08.958Z,12.02
2022-09-09T07:42:12.727Z,13.02
2022-09-09T07:47:15.231Z,12.88
2022-09-09T07:52:21.825Z,13.40
2022-09-09T07:57:28.519Z,12.45
2022-09-09T08:02:30.563Z,12.05
2022-09-09T08:07:32.901Z,12.88
2022-09-09T08:12:36.334Z,12.07
2022-09-09T08:17:39.181Z,14.07
2022-09-09T08:22:43.472Z,13.88
2022-09-09T08:27:46.141Z,14.52
2022-09-09T08:32:51.975Z,14.52
2022-09-09T08:37:56.370Z,14.80
2022-09-09T08:43:02.941Z,13.52
2022-09-09T08:48:44.760Z,14.00
2022-09-09T08:53:50.304Z,16.27
2022-09-09T08:59:06.147Z,15.43
2022-09-09T09:04:38.143Z,17.10
2022-09-09T09:09:59.888Z,16.50
2022-09-09T09:15:03.903Z,17.70
2022-09-09T09:20:13.448Z,18.63
2022-09-09T09:25:28.163Z,21.02
2022-09-09T09:30:39.250Z,20.45
2022-09-09T09:35:44.741Z,20.75
2022-09-09T09:40:54.213Z,20.40
2022-09-09T09:46:18.383Z,22.08
2022-09-09T09:51:23.595Z,23.23
2022-09-09T09:56:30.125Z,22.40
2022-09-09T10:01:36.438Z,22.35
2022-09-09T10:06:42.929Z,21.83
2022-09-09T10:12:04.821Z,24.02
2022-09-09T10:17:18.505Z,23.10
2022-09-09T10:27:23.445Z,22.67
2022-09-09T10:32:38.774Z,23.77
2022-09-09T10:38:04.727Z,23.95
2022-09-09T10:43:25.417Z,24.35
2022-09-09T10:48:51.122Z,25.23
2022-09-09T10:54:02.520Z,24.33
2022-09-09T10:59:17.232Z,26.30
2022-09-09T11:04:27.540Z,25.58
2022-09-09T11:09:34.064Z,26.42
2022-09-09T11:14:58.882Z,25.75
2022-09-09T11:20:00.776Z,26.92
2022-09-09T11:25:07.488Z,26.02
2022-09-09T11:30:55.084Z,27.23
2022-09-09T11:36:07.948Z,29.00
2022-09-09T11:41:11.065Z,29.58
2022-09-09T11:46:18.564Z,29.45
2022-09-09T11:51:20.401Z,29.30
2022-09-09T11:56:34.052Z,30.38
2022-09-09T12:01:39.406Z,30.77
2022-09-09T12:06:48.109Z,28.30
2022-09-09T12:11:50.545Z,30.38
2022-09-09T12:16:52.626Z,30.52
2022-09-09T12:22:06.994Z,29.35
2022-09-09T12:27:29.786Z,28.20
2022-09-09T12:32:31.706Z,28.93
2022-09-09T12:37:36.373Z,28.63
2022-09-09T12:42:41.822Z,29.90
2022-09-09T12:47:49.094Z,27.17
2022-09-09T12:52:54.326Z,27.02
2022-09-09T12:57:56.593Z,28.15
2022-09-09T13:03:00.688Z,27.70
2022-09-09T13:08:11.312Z,29.52
2022-09-09T13:13:27.015Z,32.67
2022-09-09T13:18:32.750Z,27.92
2022-09-09T13:23:37.514Z,29.02
2022-09-09T13:28:39.484Z,29.00
2022-09-09T13:33:41.396Z,31.10
2022-09-09T13:38:52.430Z,32.13
2022-09-09T13:43:56.150Z,30.58
2022-09-09T13:49:04.004Z,33.03
2022-09-09T13:54:07.849Z,30.80
2022-09-09T13:59:15.816Z,30.20
2022-09-09T14:04:18.288Z,28.88
2022-09-09T14:09:20.327Z,27.52
2022-09-09T14:14:22.520Z,29.45
2022-09-09T14:19:24.696Z,27.83
2022-09-09T14:24:26.825Z,32.95
2022-09-09T14:29:28.761Z,30.15
2022-09-09T14:34:31.333Z,31.83
2022-09-09T14:39:33.256Z,29.10
2022-09-09T14:44:35.572Z,34.53
2022-09-09T14:49:39.822Z,30.02
2022-09-09T14:54:43.495Z,26.20
2022-09-09T14:59:45.828Z,31.83
2022-09-09T15:04:47.852Z,27.23
2022-09-09T15:09:50.697Z,27.92
2022-09-09T15:14:54.645Z,27.97
2022-09-09T15:19:56.691Z,28.42
2022-09-09T15:24:59.224Z,26.02
2022-09-09T15:30:01.914Z,29.35
2022-09-09T15:35:04.027Z,25.10
2022-09-09T15:40:07.621Z,27.38
2022-09-09T15:45:10.121Z,27.77
2022-09-09T15:50:12.739Z,27.40
2022-09-09T15:55:14.981Z,25.33
2022-09-09T16:00:17.361Z,27.38
2022-09-09T16:05:22.407Z,26.23
2022-09-09T16:10:24.265Z,27.48
2022-09-09T16:15:26.082Z,28.77
2022-09-09T16:20:28.146Z,29.85
2022-09-09T16:25:30.118Z,29.00
2022-09-09T16:30:32.031Z,26.80
2022-09-09T16:35:37.720Z,27.80
2022-09-09T16:40:41.078Z,28.05
2022-09-09T16:45:44.366Z,31.02
2022-09-09T16:55:48.992Z,29.17
2022-09-09T17:00:52.831Z,27.40
2022-09-09T17:05:54.691Z,25.77
2022-09-09T17:10:57.590Z,26.42
2022-09-09T17:16:02.883Z,28.27
2022-09-09T17:21:11.618Z,33.08
2022-09-09T17:26:16.091Z,30.08
2022-09-09T17:31:19.530Z,29.17
2022-09-09T17:41:31.158Z,26.83
2022-09-09T17:46:36.958Z,30.88
2022-09-09T17:51:39.879Z,27.35
2022-09-09T17:56:42.937Z,26.17
2022-09-09T18:01:47.605Z,25.20
2022-09-09T18:06:52.181Z,26.60
2022-09-09T18:11:56.529Z,33.88
2022-09-09T18:17:00.383Z,30.95
2022-09-09T18:22:05.396Z,28.67
2022-09-09T18:27:07.548Z,32.72
2022-09-09T18:32:10.001Z,29.75
2022-09-09T18:37:18.031Z,28.92
2022-09-09T18:42:20.250Z,31.42
2022-09-09T18:47:24.797Z,28.13
2022-09-09T18:52:30.735Z,30.70
2022-09-09T18:57:36.363Z,28.52
2022-09-09T19:02:39.065Z,29.20
2022-09-09T19:07:41.469Z,24.27
2022-09-09T19:12:46.402Z,25.97
2022-09-09T19:17:48.560Z,21.85
2022-09-09T19:22:54.249Z,23.98
2022-09-09T19:27:56.726Z,24.35
2022-09-09T19:33:01.770Z,24.38
2022-09-09T19:38:04.004Z,23.67
2022-09-09T19:43:07.572Z,26.25
2022-09-09T19:53:13.232Z,23.98
2022-09-09T19:58:15.149Z,26.83
2022-09-09T20:03:19.549Z,24.38
2022-09-09T20:08:24.583Z,23.88
2022-09-09T20:13:26.730Z,24.42
2022-09-09T20:18:32.302Z,24.70
2022-09-09T20:23:34.502Z,28.23
2022-09-09T20:28:39.157Z,23.85
2022-09-09T20:33:42.336Z,25.33
2022-09-09T20:38:50.343Z,22.35
2022-09-09T20:43:57.518Z,21.77
2022-09-09T20:49:03.076Z,20.77
2022-09-09T20:54:13.939Z,20.23
2022-09-09T20:59:34.907Z,20.75
2022-09-09T21:04:38.363Z,21.20
2022-09-09T21:09:41.094Z,21.77
2022-09-09T21:14:43.083Z,18.97
2022-09-09T21:19:45.240Z,20.02
2022-09-09T21:24:47.223Z,20.33
2022-09-09T21:29:50.134Z,20.77
2022-09-09T21:34:52.143Z,17.02
2022-09-09T21:39:54.486Z,18.08
2022-09-09T21:44:56.450Z,19.17
2022-09-09T21:49:58.430Z,17.05
2022-09-09T21:55:00.829Z,17.35
2022-09-09T22:00:07.428Z,17.38
2022-09-09T22:05:14.788Z,16.42
2022-09-09T22:10:19.678Z,15.02
2022-09-09T22:15:21.623Z,14.38
2022-09-09T22:20:23.462Z,16.90
2022-09-09T22:25:25.434Z,15.60
2022-09-09T22:30:28.661Z,16.80
2022-09-09T22:35:30.772Z,17.27
2022-09-09T22:40:36.024Z,17.65
2022-09-09T22:45:37.889Z,16.35
2022-09-09T22:50:42.284Z,16.05
2022-09-09T22:55:58.585Z,15.88
2022-09-09T23:01:00.634Z,12.93
2022-09-09T23:06:04.204Z,13.38
2022-09-09T23:16:17.177Z,14.02
2022-09-09T23:21:19.532Z,13.02
2022-09-09T23:26:22.897Z,14.85
2022-09-09T23:31:26.637Z,13.27
2022-09-09T23:36:29.673Z,12.05
2022-09-09T23:41:33.112Z,12.68
2022-09-09T23:46:35.683Z,10.75
2022-09-09T23:51:38.116Z,12.57
2022-09-09T23:56:42.342Z,11.77
